sensor_id;sensor_type;location;lat;lon;timestamp;P1;durP1;ratioP1;P2;durP2;ratioP2
68680;SDS011;55836;49.858;6.756;2023-03-24T00:02:22;5.30;;;2.80;;
68680;SDS011;55836;49.858;6.756;2023-03-24T00:04:49;4.03;;;3.43;;
68680;SDS011;55836;49.858;6.756;2023-03-24T00:07:17;4.53;;;2.77;;
68680;SDS011;55836;49.858;6.756;2023-03-24T00:09:47;4.37;;;2.80;;
68680;SDS011;55836;49.858;6.756;2023-03-24T00:12:13;4.83;;;3.03;;
68680;SDS011;55836;49.858;6.756;2023-03-24T00:14:43;4.83;;;2.43;;
68680;SDS011;55836;49.858;6.756;2023-03-24T00:17:10;4.00;;;2.70;;
68680;SDS011;55836;49.858;6.756;2023-03-24T00:19:38;3.83;;;2.50;;
68680;SDS011;55836;49.858;6.756;2023-03-24T00:22:05;5.40;;;3.60;;
68680;SDS011;55836;49.858;6.756;2023-03-24T00:24:32;5.03;;;3.30;;
68680;SDS011;55836;49.858;6.756;2023-03-24T00:26:58;5.13;;;3.53;;
68680;SDS011;55836;49.858;6.756;2023-03-24T00:29:25;6.17;;;3.20;;
68680;SDS011;55836;49.858;6.756;2023-03-24T00:31:51;4.40;;;3.87;;
68680;SDS011;55836;49.858;6.756;2023-03-24T00:34:20;6.33;;;3.30;;
68680;SDS011;55836;49.858;6.756;2023-03-24T00:36:47;4.13;;;3.73;;
68680;SDS011;55836;49.858;6.756;2023-03-24T00:39:15;5.03;;;4.13;;
68680;SDS011;55836;49.858;6.756;2023-03-24T00:41:42;6.00;;;3.97;;
68680;SDS011;55836;49.858;6.756;2023-03-24T00:44:09;8.43;;;4.30;;
68680;SDS011;55836;49.858;6.756;2023-03-24T00:46:42;7.17;;;4.80;;
68680;SDS011;55836;49.858;6.756;2023-03-24T00:49:10;6.20;;;4.97;;
68680;SDS011;55836;49.858;6.756;2023-03-24T00:51:40;6.27;;;5.17;;
68680;SDS011;55836;49.858;6.756;2023-03-24T00:54:07;6.67;;;5.47;;
68680;SDS011;55836;49.858;6.756;2023-03-24T00:56:34;8.13;;;5.60;;
68680;SDS011;55836;49.858;6.756;2023-03-24T00:59:02;6.90;;;5.07;;
68680;SDS011;55836;49.858;6.756;2023-03-24T01:01:28;7.27;;;5.57;;
68680;SDS011;55836;49.858;6.756;2023-03-24T01:03:57;7.33;;;5.73;;
68680;SDS011;55836;49.858;6.756;2023-03-24T01:06:24;8.13;;;5.30;;
68680;SDS011;55836;49.858;6.756;2023-03-24T01:08:50;8.13;;;5.87;;
68680;SDS011;55836;49.858;6.756;2023-03-24T01:11:21;6.43;;;5.03;;
68680;SDS011;55836;49.858;6.756;2023-03-24T01:13:48;8.73;;;5.33;;
68680;SDS011;55836;49.858;6.756;2023-03-24T01:16:15;7.10;;;5.20;;
68680;SDS011;55836;49.858;6.756;2023-03-24T01:18:41;6.20;;;4.87;;
68680;SDS011;55836;49.858;6.756;2023-03-24T01:21:08;6.50;;;5.10;;
68680;SDS011;55836;49.858;6.756;2023-03-24T01:23:36;7.97;;;6.20;;
68680;SDS011;55836;49.858;6.756;2023-03-24T01:26:03;9.23;;;6.33;;
68680;SDS011;55836;49.858;6.756;2023-03-24T01:28:30;10.33;;;7.30;;
68680;SDS011;55836;49.858;6.756;2023-03-24T01:30:56;8.10;;;6.67;;
68680;SDS011;55836;49.858;6.756;2023-03-24T01:33:22;9.10;;;6.63;;
68680;SDS011;55836;49.858;6.756;2023-03-24T01:35:48;14.47;;;8.10;;
68680;SDS011;55836;49.858;6.756;2023-03-24T01:38:15;11.00;;;8.03;;
68680;SDS011;55836;49.858;6.756;2023-03-24T01:40:42;11.53;;;8.47;;
68680;SDS011;55836;49.858;6.756;2023-03-24T01:43:19;9.20;;;7.27;;
68680;SDS011;55836;49.858;6.756;2023-03-24T01:45:56;9.77;;;8.10;;
68680;SDS011;55836;49.858;6.756;2023-03-24T01:48:34;10.33;;;7.77;;
68680;SDS011;55836;49.858;6.756;2023-03-24T01:51:07;13.23;;;8.17;;
68680;SDS011;55836;49.858;6.756;2023-03-24T01:53:35;12.53;;;9.27;;
68680;SDS011;55836;49.858;6.756;2023-03-24T01:56:02;13.33;;;9.47;;
68680;SDS011;55836;49.858;6.756;2023-03-24T01:58:30;12.03;;;9.20;;
68680;SDS011;55836;49.858;6.756;2023-03-24T02:00:57;12.10;;;8.93;;
68680;SDS011;55836;49.858;6.756;2023-03-24T02:03:23;10.33;;;8.80;;
68680;SDS011;55836;49.858;6.756;2023-03-24T02:05:51;11.57;;;9.03;;
68680;SDS011;55836;49.858;6.756;2023-03-24T02:10:44;11.43;;;9.30;;
68680;SDS011;55836;49.858;6.756;2023-03-24T02:13:11;14.77;;;9.60;;
68680;SDS011;55836;49.858;6.756;2023-03-24T02:15:44;13.33;;;9.43;;
68680;SDS011;55836;49.858;6.756;2023-03-24T02:18:21;12.13;;;9.23;;
68680;SDS011;55836;49.858;6.756;2023-03-24T02:31:23;13.67;;;9.30;;
68680;SDS011;55836;49.858;6.756;2023-03-24T02:39:39;16.63;;;10.63;;
68680;SDS011;55836;49.858;6.756;2023-03-24T02:45:35;20.40;;;12.47;;
68680;SDS011;55836;49.858;6.756;2023-03-24T02:50:27;16.90;;;11.73;;
68680;SDS011;55836;49.858;6.756;2023-03-24T02:53:16;18.00;;;12.20;;
68680;SDS011;55836;49.858;6.756;2023-03-24T02:55:54;22.50;;;12.37;;
68680;SDS011;55836;49.858;6.756;2023-03-24T02:58:32;16.90;;;12.27;;
68680;SDS011;55836;49.858;6.756;2023-03-24T03:01:02;18.03;;;13.00;;
68680;SDS011;55836;49.858;6.756;2023-03-24T03:03:31;19.37;;;13.60;;
68680;SDS011;55836;49.858;6.756;2023-03-24T03:06:32;19.60;;;13.33;;
68680;SDS011;55836;49.858;6.756;2023-03-24T03:08:51;20.10;;;13.23;;
68680;SDS011;55836;49.858;6.756;2023-03-24T03:11:17;19.97;;;14.20;;
68680;SDS011;55836;49.858;6.756;2023-03-24T03:13:53;21.93;;;13.50;;
68680;SDS011;55836;49.858;6.756;2023-03-24T03:16:22;16.30;;;13.47;;
68680;SDS011;55836;49.858;6.756;2023-03-24T03:18:57;18.30;;;13.57;;
68680;SDS011;55836;49.858;6.756;2023-03-24T03:21:25;18.27;;;12.47;;
68680;SDS011;55836;49.858;6.756;2023-03-24T03:23:55;19.97;;;12.40;;
68680;SDS011;55836;49.858;6.756;2023-03-24T03:26:23;14.50;;;11.20;;
68680;SDS011;55836;49.858;6.756;2023-03-24T03:28:56;18.93;;;12.40;;
68680;SDS011;55836;49.858;6.756;2023-03-24T03:31:26;18.93;;;12.80;;
68680;SDS011;55836;49.858;6.756;2023-03-24T03:34:08;15.07;;;11.33;;
68680;SDS011;55836;49.858;6.756;2023-03-24T03:36:56;14.37;;;10.53;;
68680;SDS011;55836;49.858;6.756;2023-03-24T03:39:28;14.53;;;10.63;;
68680;SDS011;55836;49.858;6.756;2023-03-24T03:41:55;15.37;;;10.57;;
68680;SDS011;55836;49.858;6.756;2023-03-24T03:44:21;13.40;;;9.67;;
68680;SDS011;55836;49.858;6.756;2023-03-24T03:46:47;16.27;;;10.67;;
68680;SDS011;55836;49.858;6.756;2023-03-24T03:49:14;12.20;;;9.07;;
68680;SDS011;55836;49.858;6.756;2023-03-24T03:51:40;13.20;;;9.30;;
68680;SDS011;55836;49.858;6.756;2023-03-24T03:54:07;11.47;;;8.80;;
68680;SDS011;55836;49.858;6.756;2023-03-24T03:56:34;10.90;;;7.80;;
68680;SDS011;55836;49.858;6.756;2023-03-24T03:59:01;14.53;;;8.60;;
68680;SDS011;55836;49.858;6.756;2023-03-24T04:01:28;10.17;;;7.57;;
68680;SDS011;55836;49.858;6.756;2023-03-24T04:24:53;9.17;;;6.30;;
68680;SDS011;55836;49.858;6.756;2023-03-24T04:32:20;8.17;;;5.57;;
68680;SDS011;55836;49.858;6.756;2023-03-24T04:34:52;5.50;;;4.73;;
68680;SDS011;55836;49.858;6.756;2023-03-24T04:37:26;5.80;;;5.20;;
68680;SDS011;55836;49.858;6.756;2023-03-24T04:39:56;6.10;;;4.43;;
68680;SDS011;55836;49.858;6.756;2023-03-24T04:42:29;5.10;;;4.43;;
68680;SDS011;55836;49.858;6.756;2023-03-24T04:44:57;4.53;;;4.00;;
68680;SDS011;55836;49.858;6.756;2023-03-24T04:47:25;5.73;;;4.43;;
68680;SDS011;55836;49.858;6.756;2023-03-24T04:49:58;5.03;;;4.30;;
68680;SDS011;55836;49.858;6.756;2023-03-24T04:52:24;6.20;;;4.60;;
68680;SDS011;55836;49.858;6.756;2023-03-24T04:54:51;5.93;;;4.30;;
68680;SDS011;55836;49.858;6.756;2023-03-24T04:57:17;4.90;;;4.03;;
68680;SDS011;55836;49.858;6.756;2023-03-24T04:59:43;4.53;;;4.13;;
68680;SDS011;55836;49.858;6.756;2023-03-24T05:02:10;4.17;;;3.77;;
68680;SDS011;55836;49.858;6.756;2023-03-24T05:04:36;4.63;;;3.80;;
68680;SDS011;55836;49.858;6.756;2023-03-24T05:07:02;5.47;;;4.30;;
68680;SDS011;55836;49.858;6.756;2023-03-24T05:09:28;3.97;;;3.40;;
68680;SDS011;55836;49.858;6.756;2023-03-24T05:11:58;4.57;;;3.50;;
68680;SDS011;55836;49.858;6.756;2023-03-24T05:14:24;5.60;;;4.00;;
68680;SDS011;55836;49.858;6.756;2023-03-24T05:16:50;4.23;;;3.80;;
68680;SDS011;55836;49.858;6.756;2023-03-24T05:19:16;5.70;;;3.43;;
68680;SDS011;55836;49.858;6.756;2023-03-24T05:21:42;4.47;;;3.43;;
68680;SDS011;55836;49.858;6.756;2023-03-24T05:24:08;4.60;;;3.50;;
68680;SDS011;55836;49.858;6.756;2023-03-24T05:26:34;4.73;;;3.23;;
68680;SDS011;55836;49.858;6.756;2023-03-24T05:29:00;3.57;;;2.73;;
68680;SDS011;55836;49.858;6.756;2023-03-24T05:31:26;5.77;;;3.83;;
68680;SDS011;55836;49.858;6.756;2023-03-24T05:33:52;4.27;;;3.20;;
68680;SDS011;55836;49.858;6.756;2023-03-24T05:36:19;3.93;;;3.63;;
68680;SDS011;55836;49.858;6.756;2023-03-24T05:38:45;5.73;;;4.27;;
68680;SDS011;55836;49.858;6.756;2023-03-24T05:41:11;3.70;;;2.80;;
68680;SDS011;55836;49.858;6.756;2023-03-24T05:43:37;3.90;;;2.77;;
68680;SDS011;55836;49.858;6.756;2023-03-24T05:46:03;3.47;;;2.60;;
68680;SDS011;55836;49.858;6.756;2023-03-24T05:48:29;2.83;;;2.50;;
68680;SDS011;55836;49.858;6.756;2023-03-24T05:50:55;3.73;;;2.70;;
68680;SDS011;55836;49.858;6.756;2023-03-24T05:53:21;2.97;;;2.67;;
68680;SDS011;55836;49.858;6.756;2023-03-24T05:55:47;3.50;;;2.47;;
68680;SDS011;55836;49.858;6.756;2023-03-24T05:58:13;3.80;;;2.43;;
68680;SDS011;55836;49.858;6.756;2023-03-24T06:00:40;3.27;;;2.47;;
68680;SDS011;55836;49.858;6.756;2023-03-24T06:03:06;2.93;;;2.20;;
68680;SDS011;55836;49.858;6.756;2023-03-24T06:05:32;2.43;;;2.23;;
68680;SDS011;55836;49.858;6.756;2023-03-24T06:07:58;3.07;;;1.93;;
68680;SDS011;55836;49.858;6.756;2023-03-24T06:10:25;3.00;;;1.90;;
68680;SDS011;55836;49.858;6.756;2023-03-24T06:12:51;2.37;;;1.80;;
68680;SDS011;55836;49.858;6.756;2023-03-24T06:15:18;4.80;;;2.20;;
68680;SDS011;55836;49.858;6.756;2023-03-24T06:17:44;5.50;;;2.47;;
68680;SDS011;55836;49.858;6.756;2023-03-24T06:20:12;2.97;;;2.73;;
68680;SDS011;55836;49.858;6.756;2023-03-24T06:22:40;3.00;;;2.53;;
68680;SDS011;55836;49.858;6.756;2023-03-24T06:25:06;2.93;;;2.40;;
68680;SDS011;55836;49.858;6.756;2023-03-24T06:27:33;4.03;;;2.30;;
68680;SDS011;55836;49.858;6.756;2023-03-24T06:30:00;4.00;;;2.13;;
68680;SDS011;55836;49.858;6.756;2023-03-24T06:32:26;4.70;;;2.20;;
68680;SDS011;55836;49.858;6.756;2023-03-24T06:34:53;3.03;;;2.20;;
68680;SDS011;55836;49.858;6.756;2023-03-24T06:37:22;2.47;;;2.20;;
68680;SDS011;55836;49.858;6.756;2023-03-24T06:39:48;1.97;;;1.87;;
68680;SDS011;55836;49.858;6.756;2023-03-24T06:42:15;6.07;;;2.57;;
68680;SDS011;55836;49.858;6.756;2023-03-24T06:44:42;2.60;;;2.10;;
68680;SDS011;55836;49.858;6.756;2023-03-24T06:47:08;5.30;;;2.60;;
68680;SDS011;55836;49.858;6.756;2023-03-24T06:49:34;4.47;;;2.10;;
68680;SDS011;55836;49.858;6.756;2023-03-24T06:52:01;3.17;;;2.33;;
68680;SDS011;55836;49.858;6.756;2023-03-24T06:54:27;3.70;;;2.00;;
68680;SDS011;55836;49.858;6.756;2023-03-24T06:56:53;2.50;;;2.30;;
68680;SDS011;55836;49.858;6.756;2023-03-24T06:59:20;4.67;;;2.57;;
68680;SDS011;55836;49.858;6.756;2023-03-24T07:01:51;2.90;;;2.20;;
68680;SDS011;55836;49.858;6.756;2023-03-24T07:04:18;4.23;;;2.90;;
68680;SDS011;55836;49.858;6.756;2023-03-24T07:06:45;3.70;;;1.87;;
68680;SDS011;55836;49.858;6.756;2023-03-24T07:09:11;2.53;;;2.00;;
68680;SDS011;55836;49.858;6.756;2023-03-24T07:11:37;5.27;;;2.20;;
68680;SDS011;55836;49.858;6.756;2023-03-24T07:14:03;2.50;;;2.20;;
68680;SDS011;55836;49.858;6.756;2023-03-24T07:16:30;2.50;;;1.80;;
68680;SDS011;55836;49.858;6.756;2023-03-24T07:18:56;2.73;;;2.53;;
68680;SDS011;55836;49.858;6.756;2023-03-24T07:21:22;3.37;;;2.37;;
68680;SDS011;55836;49.858;6.756;2023-03-24T07:23:48;2.90;;;2.43;;
68680;SDS011;55836;49.858;6.756;2023-03-24T07:26:14;3.73;;;2.00;;
68680;SDS011;55836;49.858;6.756;2023-03-24T07:28:40;1.93;;;1.70;;
68680;SDS011;55836;49.858;6.756;2023-03-24T07:31:06;3.13;;;2.27;;
68680;SDS011;55836;49.858;6.756;2023-03-24T07:33:35;2.90;;;2.03;;
68680;SDS011;55836;49.858;6.756;2023-03-24T07:36:02;2.90;;;1.80;;
68680;SDS011;55836;49.858;6.756;2023-03-24T07:38:28;3.57;;;1.87;;
68680;SDS011;55836;49.858;6.756;2023-03-24T07:40:56;3.17;;;1.47;;
68680;SDS011;55836;49.858;6.756;2023-03-24T07:43:23;2.70;;;1.77;;
68680;SDS011;55836;49.858;6.756;2023-03-24T07:45:49;3.73;;;1.83;;
68680;SDS011;55836;49.858;6.756;2023-03-24T07:48:15;1.60;;;1.50;;
68680;SDS011;55836;49.858;6.756;2023-03-24T07:50:41;3.43;;;1.60;;
68680;SDS011;55836;49.858;6.756;2023-03-24T07:53:07;3.30;;;1.30;;
68680;SDS011;55836;49.858;6.756;2023-03-24T07:55:34;1.73;;;1.20;;
68680;SDS011;55836;49.858;6.756;2023-03-24T07:58:01;1.27;;;1.10;;
68680;SDS011;55836;49.858;6.756;2023-03-24T08:00:27;1.40;;;1.17;;
68680;SDS011;55836;49.858;6.756;2023-03-24T08:02:54;2.83;;;1.60;;
68680;SDS011;55836;49.858;6.756;2023-03-24T08:05:21;3.03;;;1.50;;
68680;SDS011;55836;49.858;6.756;2023-03-24T08:07:50;5.27;;;1.67;;
68680;SDS011;55836;49.858;6.756;2023-03-24T08:10:21;2.37;;;1.80;;
68680;SDS011;55836;49.858;6.756;2023-03-24T08:12:48;9.43;;;1.90;;
68680;SDS011;55836;49.858;6.756;2023-03-24T08:15:14;5.30;;;2.20;;
68680;SDS011;55836;49.858;6.756;2023-03-24T08:17:40;4.00;;;1.50;;
68680;SDS011;55836;49.858;6.756;2023-03-24T08:20:07;2.70;;;1.27;;
68680;SDS011;55836;49.858;6.756;2023-03-24T08:22:38;4.20;;;2.23;;
68680;SDS011;55836;49.858;6.756;2023-03-24T08:25:04;5.90;;;2.03;;
68680;SDS011;55836;49.858;6.756;2023-03-24T08:27:31;4.87;;;1.70;;
68680;SDS011;55836;49.858;6.756;2023-03-24T08:29:57;3.60;;;1.97;;
68680;SDS011;55836;49.858;6.756;2023-03-24T08:32:23;10.67;;;1.93;;
68680;SDS011;55836;49.858;6.756;2023-03-24T08:34:49;3.20;;;1.50;;
68680;SDS011;55836;49.858;6.756;2023-03-24T08:37:15;8.30;;;2.57;;
68680;SDS011;55836;49.858;6.756;2023-03-24T08:39:41;5.70;;;2.27;;
68680;SDS011;55836;49.858;6.756;2023-03-24T08:42:07;3.83;;;1.83;;
68680;SDS011;55836;49.858;6.756;2023-03-24T08:44:33;3.50;;;2.40;;
68680;SDS011;55836;49.858;6.756;2023-03-24T08:47:00;3.07;;;1.87;;
68680;SDS011;55836;49.858;6.756;2023-03-24T08:49:26;2.80;;;1.40;;
68680;SDS011;55836;49.858;6.756;2023-03-24T08:51:52;6.40;;;2.80;;
68680;SDS011;55836;49.858;6.756;2023-03-24T08:54:18;5.10;;;2.20;;
68680;SDS011;55836;49.858;6.756;2023-03-24T08:56:47;3.80;;;1.90;;
68680;SDS011;55836;49.858;6.756;2023-03-24T08:59:13;3.87;;;1.50;;
68680;SDS011;55836;49.858;6.756;2023-03-24T09:01:39;2.67;;;1.60;;
68680;SDS011;55836;49.858;6.756;2023-03-24T09:04:05;5.57;;;2.10;;
68680;SDS011;55836;49.858;6.756;2023-03-24T09:06:32;8.37;;;1.90;;
68680;SDS011;55836;49.858;6.756;2023-03-24T09:08:58;6.47;;;2.83;;
68680;SDS011;55836;49.858;6.756;2023-03-24T09:11:24;4.37;;;2.40;;
68680;SDS011;55836;49.858;6.756;2023-03-24T09:13:50;2.93;;;1.73;;
68680;SDS011;55836;49.858;6.756;2023-03-24T09:16:17;4.40;;;1.80;;
68680;SDS011;55836;49.858;6.756;2023-03-24T09:18:43;4.70;;;1.80;;
68680;SDS011;55836;49.858;6.756;2023-03-24T09:21:09;5.00;;;1.80;;
68680;SDS011;55836;49.858;6.756;2023-03-24T09:23:35;7.27;;;2.00;;
68680;SDS011;55836;49.858;6.756;2023-03-24T09:26:02;6.20;;;2.37;;
68680;SDS011;55836;49.858;6.756;2023-03-24T09:28:28;5.27;;;3.20;;
68680;SDS011;55836;49.858;6.756;2023-03-24T09:30:58;5.53;;;1.93;;
68680;SDS011;55836;49.858;6.756;2023-03-24T09:33:24;4.93;;;1.57;;
68680;SDS011;55836;49.858;6.756;2023-03-24T09:35:57;4.47;;;3.00;;
68680;SDS011;55836;49.858;6.756;2023-03-24T09:38:23;8.40;;;3.47;;
68680;SDS011;55836;49.858;6.756;2023-03-24T09:40:52;4.17;;;2.40;;
68680;SDS011;55836;49.858;6.756;2023-03-24T09:45:57;5.93;;;2.00;;
68680;SDS011;55836;49.858;6.756;2023-03-24T09:48:34;5.37;;;1.67;;
68680;SDS011;55836;49.858;6.756;2023-03-24T09:51:07;5.33;;;1.50;;
68680;SDS011;55836;49.858;6.756;2023-03-24T09:56:10;6.33;;;2.33;;
68680;SDS011;55836;49.858;6.756;2023-03-24T09:58:36;5.60;;;2.43;;
68680;SDS011;55836;49.858;6.756;2023-03-24T10:01:07;7.37;;;2.20;;
68680;SDS011;55836;49.858;6.756;2023-03-24T10:03:33;3.50;;;1.87;;
68680;SDS011;55836;49.858;6.756;2023-03-24T10:08:36;4.33;;;2.20;;
68680;SDS011;55836;49.858;6.756;2023-03-24T10:11:03;11.33;;;2.70;;
68680;SDS011;55836;49.858;6.756;2023-03-24T10:16:47;6.17;;;2.03;;
68680;SDS011;55836;49.858;6.756;2023-03-24T10:21:58;4.90;;;2.20;;
68680;SDS011;55836;49.858;6.756;2023-03-24T10:24:28;5.40;;;1.90;;
68680;SDS011;55836;49.858;6.756;2023-03-24T10:27:01;11.13;;;2.50;;
68680;SDS011;55836;49.858;6.756;2023-03-24T10:29:34;6.70;;;2.90;;
68680;SDS011;55836;49.858;6.756;2023-03-24T10:32:04;6.30;;;2.37;;
68680;SDS011;55836;49.858;6.756;2023-03-24T10:34:33;4.87;;;2.00;;
68680;SDS011;55836;49.858;6.756;2023-03-24T10:37:01;5.03;;;2.50;;
68680;SDS011;55836;49.858;6.756;2023-03-24T10:39:28;3.90;;;1.87;;
68680;SDS011;55836;49.858;6.756;2023-03-24T10:41:54;6.93;;;2.60;;
68680;SDS011;55836;49.858;6.756;2023-03-24T10:44:22;6.57;;;1.73;;
68680;SDS011;55836;49.858;6.756;2023-03-24T10:46:50;7.60;;;2.23;;
68680;SDS011;55836;49.858;6.756;2023-03-24T10:49:20;4.70;;;1.70;;
68680;SDS011;55836;49.858;6.756;2023-03-24T10:51:47;9.17;;;2.10;;
68680;SDS011;55836;49.858;6.756;2023-03-24T10:54:32;4.43;;;1.80;;
68680;SDS011;55836;49.858;6.756;2023-03-24T11:04:25;8.17;;;1.87;;
68680;SDS011;55836;49.858;6.756;2023-03-24T11:06:57;5.00;;;1.93;;
68680;SDS011;55836;49.858;6.756;2023-03-24T11:09:25;5.63;;;2.07;;
68680;SDS011;55836;49.858;6.756;2023-03-24T11:11:51;7.30;;;2.27;;
68680;SDS011;55836;49.858;6.756;2023-03-24T11:14:25;7.87;;;1.80;;
68680;SDS011;55836;49.858;6.756;2023-03-24T11:16:52;8.67;;;1.83;;
68680;SDS011;55836;49.858;6.756;2023-03-24T11:19:22;6.33;;;1.87;;
68680;SDS011;55836;49.858;6.756;2023-03-24T11:21:51;5.53;;;1.70;;
68680;SDS011;55836;49.858;6.756;2023-03-24T11:24:18;4.00;;;1.43;;
68680;SDS011;55836;49.858;6.756;2023-03-24T11:27:05;4.60;;;1.53;;
68680;SDS011;55836;49.858;6.756;2023-03-24T11:29:32;6.77;;;1.83;;
68680;SDS011;55836;49.858;6.756;2023-03-24T11:32:02;3.10;;;1.43;;
68680;SDS011;55836;49.858;6.756;2023-03-24T11:34:36;5.70;;;2.10;;
68680;SDS011;55836;49.858;6.756;2023-03-24T11:39:41;4.67;;;2.10;;
68680;SDS011;55836;49.858;6.756;2023-03-24T11:49:37;5.30;;;1.70;;
68680;SDS011;55836;49.858;6.756;2023-03-24T11:52:05;4.27;;;1.50;;
68680;SDS011;55836;49.858;6.756;2023-03-24T11:54:34;4.17;;;1.70;;
68680;SDS011;55836;49.858;6.756;2023-03-24T11:57:06;6.97;;;1.63;;
68680;SDS011;55836;49.858;6.756;2023-03-24T12:17:44;4.93;;;1.53;;
68680;SDS011;55836;49.858;6.756;2023-03-24T12:20:20;5.73;;;1.40;;
68680;SDS011;55836;49.858;6.756;2023-03-24T12:23:04;7.27;;;1.50;;
68680;SDS011;55836;49.858;6.756;2023-03-24T12:25:47;5.93;;;1.70;;
68680;SDS011;55836;49.858;6.756;2023-03-24T12:30:58;4.67;;;1.63;;
68680;SDS011;55836;49.858;6.756;2023-03-24T12:33:34;7.70;;;1.57;;
68680;SDS011;55836;49.858;6.756;2023-03-24T12:38:36;5.63;;;1.47;;
68680;SDS011;55836;49.858;6.756;2023-03-24T12:51:46;6.03;;;1.60;;
68680;SDS011;55836;49.858;6.756;2023-03-24T12:54:21;5.00;;;1.73;;
68680;SDS011;55836;49.858;6.756;2023-03-24T12:57:00;5.63;;;1.47;;
68680;SDS011;55836;49.858;6.756;2023-03-24T12:59:31;5.40;;;1.40;;
68680;SDS011;55836;49.858;6.756;2023-03-24T13:02:01;5.90;;;1.80;;
68680;SDS011;55836;49.858;6.756;2023-03-24T13:04:29;4.97;;;1.43;;
68680;SDS011;55836;49.858;6.756;2023-03-24T13:07:07;6.93;;;2.00;;
68680;SDS011;55836;49.858;6.756;2023-03-24T13:09:55;5.57;;;2.37;;
68680;SDS011;55836;49.858;6.756;2023-03-24T13:14:51;3.77;;;1.93;;
68680;SDS011;55836;49.858;6.756;2023-03-24T13:17:27;8.63;;;1.63;;
68680;SDS011;55836;49.858;6.756;2023-03-24T13:19:55;7.40;;;1.90;;
68680;SDS011;55836;49.858;6.756;2023-03-24T13:22:21;4.70;;;1.90;;
68680;SDS011;55836;49.858;6.756;2023-03-24T13:24:49;6.03;;;2.27;;
68680;SDS011;55836;49.858;6.756;2023-03-24T13:37:14;6.00;;;1.90;;
68680;SDS011;55836;49.858;6.756;2023-03-24T13:39:42;7.40;;;1.70;;
68680;SDS011;55836;49.858;6.756;2023-03-24T13:42:23;6.23;;;1.57;;
68680;SDS011;55836;49.858;6.756;2023-03-24T13:44:51;2.93;;;1.77;;
68680;SDS011;55836;49.858;6.756;2023-03-24T13:47:17;5.17;;;1.57;;
68680;SDS011;55836;49.858;6.756;2023-03-24T13:49:45;4.30;;;1.57;;
68680;SDS011;55836;49.858;6.756;2023-03-24T13:54:54;5.10;;;1.80;;
68680;SDS011;55836;49.858;6.756;2023-03-24T13:57:22;6.27;;;1.90;;
68680;SDS011;55836;49.858;6.756;2023-03-24T13:59:58;3.60;;;1.57;;
68680;SDS011;55836;49.858;6.756;2023-03-24T14:05:28;5.10;;;2.10;;
68680;SDS011;55836;49.858;6.756;2023-03-24T14:12:51;5.83;;;1.90;;
68680;SDS011;55836;49.858;6.756;2023-03-24T14:15:19;7.10;;;2.00;;
68680;SDS011;55836;49.858;6.756;2023-03-24T14:17:49;8.90;;;2.70;;
68680;SDS011;55836;49.858;6.756;2023-03-24T14:20:31;6.10;;;2.00;;
68680;SDS011;55836;49.858;6.756;2023-03-24T14:22:57;4.77;;;1.60;;
68680;SDS011;55836;49.858;6.756;2023-03-24T14:25:25;5.80;;;1.83;;
68680;SDS011;55836;49.858;6.756;2023-03-24T14:27:53;2.80;;;1.07;;
68680;SDS011;55836;49.858;6.756;2023-03-24T14:30:23;3.40;;;1.63;;
68680;SDS011;55836;49.858;6.756;2023-03-24T14:32:57;1.63;;;1.03;;
68680;SDS011;55836;49.858;6.756;2023-03-24T14:38:00;1.67;;;0.90;;
68680;SDS011;55836;49.858;6.756;2023-03-24T14:40:35;1.53;;;1.03;;
68680;SDS011;55836;49.858;6.756;2023-03-24T14:43:04;2.77;;;1.13;;
68680;SDS011;55836;49.858;6.756;2023-03-24T14:45:40;5.27;;;2.03;;
68680;SDS011;55836;49.858;6.756;2023-03-24T14:48:20;4.77;;;1.50;;
68680;SDS011;55836;49.858;6.756;2023-03-24T14:50:48;1.57;;;1.20;;
68680;SDS011;55836;49.858;6.756;2023-03-24T14:53:18;4.13;;;1.17;;
68680;SDS011;55836;49.858;6.756;2023-03-24T14:55:46;4.50;;;1.50;;
68680;SDS011;55836;49.858;6.756;2023-03-24T15:00:42;4.67;;;1.23;;
68680;SDS011;55836;49.858;6.756;2023-03-24T15:05:54;7.83;;;1.73;;
68680;SDS011;55836;49.858;6.756;2023-03-24T15:08:27;3.57;;;1.30;;
68680;SDS011;55836;49.858;6.756;2023-03-24T15:11:03;6.43;;;1.67;;
68680;SDS011;55836;49.858;6.756;2023-03-24T15:15:56;3.13;;;1.40;;
68680;SDS011;55836;49.858;6.756;2023-03-24T15:18:22;4.23;;;1.40;;
68680;SDS011;55836;49.858;6.756;2023-03-24T15:20:52;7.07;;;1.40;;
68680;SDS011;55836;49.858;6.756;2023-03-24T15:23:19;5.47;;;1.80;;
68680;SDS011;55836;49.858;6.756;2023-03-24T15:25:46;3.97;;;1.70;;
68680;SDS011;55836;49.858;6.756;2023-03-24T15:28:17;4.00;;;1.87;;
68680;SDS011;55836;49.858;6.756;2023-03-24T15:30:43;5.37;;;2.27;;
68680;SDS011;55836;49.858;6.756;2023-03-24T15:33:10;6.27;;;1.50;;
68680;SDS011;55836;49.858;6.756;2023-03-24T15:35:38;4.97;;;1.87;;
68680;SDS011;55836;49.858;6.756;2023-03-24T15:38:04;3.53;;;1.57;;
68680;SDS011;55836;49.858;6.756;2023-03-24T15:40:31;6.13;;;1.40;;
68680;SDS011;55836;49.858;6.756;2023-03-24T15:43:01;7.80;;;2.53;;
68680;SDS011;55836;49.858;6.756;2023-03-24T15:47:54;9.17;;;4.20;;
68680;SDS011;55836;49.858;6.756;2023-03-24T15:50:31;7.07;;;2.60;;
68680;SDS011;55836;49.858;6.756;2023-03-24T15:52:58;7.03;;;2.33;;
68680;SDS011;55836;49.858;6.756;2023-03-24T15:55:35;5.27;;;1.77;;
68680;SDS011;55836;49.858;6.756;2023-03-24T15:58:16;7.30;;;2.33;;
68680;SDS011;55836;49.858;6.756;2023-03-24T16:00:45;5.50;;;1.97;;
68680;SDS011;55836;49.858;6.756;2023-03-24T16:03:11;8.30;;;2.40;;
68680;SDS011;55836;49.858;6.756;2023-03-24T16:05:45;8.93;;;1.97;;
68680;SDS011;55836;49.858;6.756;2023-03-24T16:08:30;8.67;;;1.87;;
68680;SDS011;55836;49.858;6.756;2023-03-24T16:11:03;6.53;;;2.33;;
68680;SDS011;55836;49.858;6.756;2023-03-24T16:13:32;5.73;;;1.87;;
68680;SDS011;55836;49.858;6.756;2023-03-24T16:18:43;6.70;;;1.73;;
68680;SDS011;55836;49.858;6.756;2023-03-24T16:21:13;4.07;;;1.40;;
68680;SDS011;55836;49.858;6.756;2023-03-24T16:23:39;6.10;;;1.80;;
68680;SDS011;55836;49.858;6.756;2023-03-24T16:26:15;6.47;;;1.77;;
68680;SDS011;55836;49.858;6.756;2023-03-24T16:28:42;4.13;;;1.50;;
68680;SDS011;55836;49.858;6.756;2023-03-24T16:33:50;9.27;;;1.90;;
68680;SDS011;55836;49.858;6.756;2023-03-24T16:36:17;6.00;;;1.60;;
68680;SDS011;55836;49.858;6.756;2023-03-24T16:38:46;3.40;;;1.50;;
68680;SDS011;55836;49.858;6.756;2023-03-24T16:41:12;3.03;;;1.70;;
68680;SDS011;55836;49.858;6.756;2023-03-24T16:43:39;6.67;;;1.60;;
68680;SDS011;55836;49.858;6.756;2023-03-24T16:46:10;4.63;;;1.60;;
68680;SDS011;55836;49.858;6.756;2023-03-24T16:48:36;3.23;;;1.50;;
68680;SDS011;55836;49.858;6.756;2023-03-24T16:51:02;6.27;;;1.60;;
68680;SDS011;55836;49.858;6.756;2023-03-24T16:53:28;4.30;;;1.63;;
68680;SDS011;55836;49.858;6.756;2023-03-24T16:55:54;5.90;;;1.90;;
68680;SDS011;55836;49.858;6.756;2023-03-24T16:58:20;4.87;;;1.63;;
68680;SDS011;55836;49.858;6.756;2023-03-24T17:00:46;5.27;;;1.97;;
68680;SDS011;55836;49.858;6.756;2023-03-24T17:03:13;5.07;;;1.30;;
68680;SDS011;55836;49.858;6.756;2023-03-24T17:05:43;7.97;;;2.00;;
68680;SDS011;55836;49.858;6.756;2023-03-24T17:08:16;6.13;;;1.63;;
68680;SDS011;55836;49.858;6.756;2023-03-24T17:10:43;6.33;;;1.70;;
68680;SDS011;55836;49.858;6.756;2023-03-24T17:13:13;6.53;;;1.67;;
68680;SDS011;55836;49.858;6.756;2023-03-24T17:15:42;4.25;;;1.90;;
68680;SDS011;55836;49.858;6.756;2023-03-24T17:18:08;6.47;;;1.70;;
68680;SDS011;55836;49.858;6.756;2023-03-24T17:20:35;6.43;;;1.50;;
68680;SDS011;55836;49.858;6.756;2023-03-24T17:23:03;4.67;;;1.40;;
68680;SDS011;55836;49.858;6.756;2023-03-24T17:25:30;6.10;;;2.13;;
68680;SDS011;55836;49.858;6.756;2023-03-24T17:27:56;5.90;;;1.60;;
68680;SDS011;55836;49.858;6.756;2023-03-24T17:30:22;6.17;;;2.33;;
68680;SDS011;55836;49.858;6.756;2023-03-24T17:32:48;8.63;;;2.13;;